createdAt,value
2023-03-18T00:00:02.014Z,9.25
2023-03-18T00:01:05.106Z,7.82
2023-03-18T00:02:08.129Z,8.95
2023-03-18T00:03:10.667Z,9.60
2023-03-18T00:04:14.734Z,7.20
2023-03-18T00:05:16.326Z,10.88
2023-03-18T00:06:21.906Z,7.80
2023-03-18T00:07:23.480Z,9.63
2023-03-18T00:08:26.145Z,8.98
2023-03-18T00:09:27.604Z,7.47
2023-03-18T00:10:30.634Z,9.15
2023-03-18T00:11:32.255Z,9.40
2023-03-18T00:12:35.017Z,8.80
2023-03-18T00:13:37.511Z,9.00
2023-03-18T00:14:40.053Z,8.70
2023-03-18T00:15:41.727Z,7.93
2023-03-18T00:16:44.435Z,8.05
2023-03-18T00:17:46.696Z,9.30
2023-03-18T00:18:49.702Z,8.98
2023-03-18T00:19:52.650Z,8.70
2023-03-18T00:20:55.393Z,8.60
2023-03-18T00:21:57.591Z,12.88
2023-03-18T00:23:00.215Z,11.48
2023-03-18T00:24:01.772Z,11.15
2023-03-18T00:25:05.699Z,9.32
2023-03-18T00:26:08.964Z,9.15
2023-03-18T00:27:11.508Z,8.20
2023-03-18T00:28:13.749Z,9.85
2023-03-18T00:29:16.434Z,7.30
2023-03-18T00:30:18.552Z,10.75
2023-03-18T00:31:21.231Z,8.23
2023-03-18T00:32:23.242Z,7.63
2023-03-18T00:33:25.941Z,10.10
2023-03-18T00:34:27.968Z,12.05
2023-03-18T00:35:32.387Z,8.38
2023-03-18T00:36:34.646Z,10.43
2023-03-18T00:37:37.577Z,11.95
2023-03-18T00:38:41.121Z,10.63
2023-03-18T00:39:44.341Z,8.52
2023-03-18T00:40:53.647Z,8.60
2023-03-18T00:41:57.983Z,9.02
2023-03-18T00:43:08.166Z,9.32
2023-03-18T00:44:11.403Z,6.47
2023-03-18T00:45:14.292Z,8.68
2023-03-18T00:46:18.880Z,9.75
2023-03-18T00:47:21.310Z,7.85
2023-03-18T00:48:24.327Z,9.60
2023-03-18T00:49:26.419Z,8.70
2023-03-18T00:50:29.284Z,10.15
2023-03-18T00:51:34.180Z,9.98
2023-03-18T00:52:37.380Z,9.38
2023-03-18T00:53:38.941Z,8.18
2023-03-18T00:54:41.951Z,7.85
2023-03-18T00:55:43.976Z,9.55
2023-03-18T00:56:47.141Z,7.35
2023-03-18T00:57:48.886Z,9.65
2023-03-18T00:58:52.593Z,8.70
2023-03-18T00:59:54.196Z,7.93
2023-03-18T01:00:57.097Z,7.35
2023-03-18T01:01:58.692Z,10.73
2023-03-18T01:03:01.470Z,8.23
2023-03-18T01:04:04.405Z,7.15
2023-03-18T01:05:07.358Z,11.45
2023-03-18T01:06:10.546Z,10.02
2023-03-18T01:07:15.426Z,9.60
2023-03-18T01:08:17.374Z,7.63
2023-03-18T01:09:19.836Z,9.38
2023-03-18T01:10:21.371Z,9.30
2023-03-18T01:11:24.682Z,9.25
2023-03-18T01:12:26.178Z,9.25
2023-03-18T01:13:28.739Z,6.38
2023-03-18T01:14:30.284Z,10.95
2023-03-18T01:15:32.835Z,9.70
2023-03-18T01:16:34.371Z,9.18
2023-03-18T01:17:37.489Z,9.45
2023-03-18T01:18:39.390Z,14.95
2023-03-18T01:19:42.408Z,10.00
2023-03-18T01:20:44.612Z,7.95
2023-03-18T01:21:47.230Z,11.57
2023-03-18T01:22:50.256Z,8.65
2023-03-18T01:23:53.377Z,7.13
2023-03-18T01:24:55.491Z,10.10
2023-03-18T01:25:59.021Z,9.60
2023-03-18T01:27:00.623Z,7.53
2023-03-18T01:28:03.173Z,5.43
2023-03-18T01:29:05.599Z,8.23
2023-03-18T01:30:09.960Z,6.97
2023-03-18T01:31:12.925Z,7.00
2023-03-18T01:32:16.076Z,7.63
2023-03-18T01:33:17.838Z,6.60
2023-03-18T01:34:21.584Z,6.88
2023-03-18T01:35:24.133Z,7.32
2023-03-18T01:36:26.684Z,8.75
2023-03-18T01:37:29.005Z,9.60
2023-03-18T01:38:33.454Z,8.85
2023-03-18T01:39:35.693Z,7.78
2023-03-18T01:40:40.482Z,7.85
2023-03-18T01:41:42.294Z,6.57
2023-03-18T01:42:49.634Z,6.35
2023-03-18T01:43:51.873Z,6.70
2023-03-18T01:45:16.196Z,6.32
2023-03-18T01:46:36.356Z,7.32
2023-03-18T01:47:38.881Z,8.18
2023-03-18T01:48:40.716Z,6.30
2023-03-18T01:49:48.357Z,6.55
2023-03-18T01:50:59.372Z,7.30
2023-03-18T01:52:07.657Z,7.93
2023-03-18T01:53:12.458Z,8.13
2023-03-18T01:54:18.697Z,7.13
2023-03-18T01:55:30.553Z,6.82
2023-03-18T01:56:36.302Z,8.43
2023-03-18T01:57:38.339Z,7.72
2023-03-18T01:58:43.296Z,5.78
2023-03-18T01:59:47.232Z,7.47
2023-03-18T02:00:54.475Z,5.97
2023-03-18T02:02:01.985Z,9.85
2023-03-18T02:03:06.159Z,8.88
2023-03-18T02:04:10.447Z,9.95
2023-03-18T02:05:18.963Z,7.30
2023-03-18T02:06:20.615Z,8.13
2023-03-18T02:07:28.611Z,8.52
2023-03-18T02:08:30.166Z,6.53
2023-03-18T02:09:34.133Z,8.15
2023-03-18T02:10:37.383Z,7.97
2023-03-18T02:11:43.616Z,6.78
2023-03-18T02:12:49.816Z,7.50
2023-03-18T02:13:52.486Z,6.78
2023-03-18T02:14:54.453Z,7.65
2023-03-18T02:16:04.828Z,6.80
2023-03-18T02:17:11.043Z,7.97
2023-03-18T02:18:19.445Z,8.60
2023-03-18T02:19:33.677Z,6.57
2023-03-18T02:20:50.607Z,7.93
2023-03-18T02:21:58.854Z,8.77
2023-03-18T02:23:09.932Z,7.00
2023-03-18T02:24:22.368Z,6.03
2023-03-18T02:25:37.901Z,6.53
2023-03-18T02:26:44.403Z,9.52
2023-03-18T02:27:52.380Z,7.88
2023-03-18T02:28:59.554Z,8.75
2023-03-18T02:30:05.614Z,9.20
2023-03-18T02:31:13.929Z,7.30
2023-03-18T02:32:17.619Z,7.80
2023-03-18T02:33:23.397Z,8.02
2023-03-18T02:34:25.849Z,7.47
2023-03-18T02:35:30.526Z,7.20
2023-03-18T02:36:34.012Z,5.18
2023-03-18T02:37:36.855Z,7.53
2023-03-18T02:38:41.716Z,8.90
2023-03-18T02:39:44.155Z,8.23
2023-03-18T02:40:45.691Z,7.47
2023-03-18T02:41:48.491Z,6.13
2023-03-18T02:42:52.383Z,6.07
2023-03-18T02:43:55.300Z,8.27
2023-03-18T02:44:57.833Z,6.70
2023-03-18T02:46:14.657Z,6.65
2023-03-18T02:47:21.083Z,6.82
2023-03-18T02:48:27.177Z,7.53
2023-03-18T02:49:29.017Z,7.55
2023-03-18T02:50:31.808Z,8.43
2023-03-18T02:51:35.544Z,6.25
2023-03-18T02:52:38.894Z,6.07
2023-03-18T02:53:41.810Z,5.93
2023-03-18T02:54:44.345Z,6.78
2023-03-18T02:55:46.565Z,5.78
2023-03-18T02:56:49.129Z,9.43
2023-03-18T02:57:51.955Z,10.20
2023-03-18T02:58:54.449Z,6.35
2023-03-18T02:59:56.243Z,7.47
2023-03-18T03:00:59.111Z,8.07
2023-03-18T03:02:01.661Z,5.65
2023-03-18T03:03:05.322Z,7.60
2023-03-18T03:04:07.587Z,6.82
2023-03-18T03:05:10.627Z,8.20
2023-03-18T03:06:12.620Z,6.13
2023-03-18T03:07:15.044Z,6.32
2023-03-18T03:08:16.571Z,7.38
2023-03-18T03:09:19.898Z,6.95
2023-03-18T03:10:21.553Z,5.95
2023-03-18T03:11:24.181Z,7.47
2023-03-18T03:12:25.813Z,7.70
2023-03-18T03:13:29.753Z,8.88
2023-03-18T03:14:31.291Z,8.70
2023-03-18T03:15:34.105Z,9.88
2023-03-18T03:16:36.180Z,6.65
2023-03-18T03:17:39.574Z,6.25
2023-03-18T03:18:42.077Z,7.88
2023-03-18T03:19:44.748Z,7.00
2023-03-18T03:20:46.689Z,11.73
2023-03-18T03:21:49.273Z,7.00
2023-03-18T03:22:51.077Z,7.53
2023-03-18T03:23:54.698Z,6.78
2023-03-18T03:24:56.207Z,8.23
2023-03-18T03:25:59.115Z,6.95
2023-03-18T03:27:01.062Z,9.25
2023-03-18T03:28:03.969Z,8.25
2023-03-18T03:29:07.882Z,5.85
2023-03-18T03:30:12.220Z,11.00
2023-03-18T03:31:15.671Z,5.80
2023-03-18T03:32:17.185Z,6.35
2023-03-18T03:33:19.739Z,5.78
2023-03-18T03:34:21.314Z,10.88
2023-03-18T03:35:25.107Z,6.35
2023-03-18T03:36:26.831Z,11.05
2023-03-18T03:37:29.611Z,8.57
2023-03-18T03:38:31.201Z,7.78
2023-03-18T03:39:33.958Z,6.28
2023-03-18T03:40:35.546Z,7.55
2023-03-18T03:41:38.058Z,6.80
2023-03-18T03:42:40.340Z,7.38
2023-03-18T03:43:43.418Z,7.50
2023-03-18T03:44:46.396Z,6.68
2023-03-18T03:45:49.036Z,8.52
2023-03-18T03:46:51.029Z,5.75
2023-03-18T03:47:53.920Z,5.35
2023-03-18T03:48:55.685Z,7.28
2023-03-18T03:49:58.223Z,8.85
2023-03-18T03:50:59.895Z,6.43
2023-03-18T03:52:02.811Z,7.75
2023-03-18T03:53:04.938Z,8.10
2023-03-18T03:54:07.536Z,6.80
2023-03-18T03:55:12.694Z,6.88
2023-03-18T03:56:15.763Z,9.23
2023-03-18T03:57:17.778Z,7.63
2023-03-18T03:58:20.416Z,6.88
2023-03-18T03:59:21.969Z,7.32
2023-03-18T04:00:26.228Z,8.80
2023-03-18T04:01:28.199Z,9.23
2023-03-18T04:02:30.739Z,7.40
2023-03-18T04:03:32.522Z,9.02
2023-03-18T04:04:35.094Z,7.10
2023-03-18T04:05:37.500Z,7.80
2023-03-18T04:06:40.033Z,7.15
2023-03-18T04:07:42.110Z,6.47
2023-03-18T04:08:44.608Z,7.65
2023-03-18T04:09:46.696Z,6.07
2023-03-18T04:10:49.205Z,7.05
2023-03-18T04:11:50.803Z,6.28
2023-03-18T04:12:53.298Z,6.75
2023-03-18T04:13:54.797Z,7.30
2023-03-18T04:14:57.406Z,6.32
2023-03-18T04:16:01.481Z,7.00
2023-03-18T04:17:03.115Z,7.70
2023-03-18T04:18:07.537Z,8.23
2023-03-18T04:19:10.304Z,7.15
2023-03-18T04:20:14.093Z,5.63
2023-03-18T04:21:16.358Z,5.82
2023-03-18T04:22:19.400Z,6.68
2023-03-18T04:23:20.982Z,6.65
2023-03-18T04:24:24.080Z,7.32
2023-03-18T04:25:26.466Z,10.25
2023-03-18T04:26:29.166Z,6.05
2023-03-18T04:27:30.880Z,4.90
2023-03-18T04:28:34.082Z,5.07
2023-03-18T04:29:35.838Z,5.63
2023-03-18T04:30:38.369Z,5.47
2023-03-18T04:31:41.706Z,8.45
2023-03-18T04:32:44.304Z,6.40
2023-03-18T04:33:45.887Z,8.35
2023-03-18T04:34:48.495Z,7.38
2023-03-18T04:35:52.724Z,12.00
2023-03-18T04:36:55.513Z,5.25
2023-03-18T04:37:57.054Z,6.07
2023-03-18T04:38:59.961Z,7.30
2023-03-18T04:40:01.613Z,9.27
2023-03-18T04:41:04.100Z,5.50
2023-03-18T04:42:05.797Z,6.63
2023-03-18T04:43:09.941Z,5.85
2023-03-18T04:44:11.830Z,7.47
2023-03-18T04:45:15.542Z,6.43
2023-03-18T04:46:17.190Z,5.65
2023-03-18T04:47:21.013Z,5.95
2023-03-18T04:48:22.505Z,6.63
2023-03-18T04:49:25.316Z,5.40
2023-03-18T04:50:27.859Z,5.82
2023-03-18T04:51:30.356Z,7.25
2023-03-18T04:52:31.930Z,9.23
2023-03-18T04:53:34.394Z,4.53
2023-03-18T04:54:37.299Z,4.97
2023-03-18T04:55:40.760Z,6.05
2023-03-18T04:56:43.660Z,6.13
2023-03-18T04:57:46.181Z,8.30
2023-03-18T04:58:47.750Z,5.20
2023-03-18T04:59:50.410Z,6.50
2023-03-18T05:00:52.589Z,5.43
2023-03-18T05:01:55.147Z,4.55
2023-03-18T05:02:58.148Z,4.80
2023-03-18T05:04:00.691Z,7.93
2023-03-18T05:05:02.527Z,8.98
2023-03-18T05:06:06.140Z,6.65
2023-03-18T05:07:08.613Z,3.90
2023-03-18T05:08:11.416Z,6.53
2023-03-18T05:09:13.334Z,4.03
2023-03-18T05:10:16.451Z,4.63
2023-03-18T05:11:18.773Z,4.90
2023-03-18T05:12:21.414Z,4.07
2023-03-18T05:13:24.070Z,6.80
2023-03-18T05:14:27.016Z,7.50
2023-03-18T05:15:28.795Z,5.78
2023-03-18T05:16:31.402Z,7.13
2023-03-18T05:17:33.073Z,5.75
2023-03-18T05:18:37.245Z,5.30
2023-03-18T05:19:38.757Z,7.20
2023-03-18T05:20:41.793Z,6.35
2023-03-18T05:21:43.306Z,4.60
2023-03-18T05:22:45.934Z,4.78
2023-03-18T05:23:47.568Z,4.88
2023-03-18T05:24:50.294Z,4.30
2023-03-18T05:25:52.342Z,6.07
2023-03-18T05:26:55.491Z,5.05
2023-03-18T05:27:57.898Z,5.65
2023-03-18T05:29:00.427Z,5.57
2023-03-18T05:30:02.244Z,6.07
2023-03-18T05:31:05.147Z,5.45
2023-03-18T05:32:07.604Z,8.23
2023-03-18T05:33:10.336Z,5.97
2023-03-18T05:34:13.467Z,4.70
2023-03-18T05:35:16.178Z,7.88
2023-03-18T05:36:17.674Z,5.80
2023-03-18T05:37:20.216Z,7.43
2023-03-18T05:38:22.333Z,5.78
2023-03-18T05:39:25.253Z,5.97
2023-03-18T05:40:26.811Z,5.85
2023-03-18T05:41:29.376Z,6.07
2023-03-18T05:42:30.955Z,11.18
2023-03-18T05:43:33.696Z,6.43
2023-03-18T05:44:35.386Z,6.07
2023-03-18T05:45:40.211Z,8.13
2023-03-18T05:46:43.273Z,6.78
2023-03-18T05:47:44.793Z,6.68
2023-03-18T05:48:47.272Z,6.13
2023-03-18T05:49:50.472Z,5.05
2023-03-18T05:50:52.979Z,6.70
2023-03-18T05:51:55.123Z,7.80
2023-03-18T05:52:58.028Z,6.22
2023-03-18T05:53:59.704Z,6.80
2023-03-18T05:55:02.540Z,7.47
2023-03-18T05:56:04.683Z,7.65
2023-03-18T05:57:07.415Z,6.18
2023-03-18T05:58:09.401Z,6.30
2023-03-18T05:59:12.548Z,9.30
2023-03-18T06:00:15.491Z,6.50
2023-03-18T06:01:17.935Z,9.57
2023-03-18T06:02:20.516Z,11.35
2023-03-18T06:03:22.512Z,11.55
2023-03-18T06:04:27.067Z,6.95
2023-03-18T06:05:31.182Z,10.02
2023-03-18T06:06:35.900Z,14.70
2023-03-18T06:07:37.625Z,9.05
2023-03-18T06:08:41.192Z,8.32
2023-03-18T06:09:43.273Z,9.30
2023-03-18T06:10:45.866Z,7.78
2023-03-18T06:11:47.448Z,6.47
2023-03-18T06:12:50.545Z,7.63
2023-03-18T06:13:52.256Z,8.50
2023-03-18T06:14:54.978Z,6.00
2023-03-18T06:15:57.195Z,9.52
2023-03-18T06:17:00.210Z,9.23
2023-03-18T06:18:01.774Z,8.23
2023-03-18T06:19:05.871Z,5.32
2023-03-18T06:20:09.470Z,7.75
2023-03-18T06:21:13.309Z,7.75
2023-03-18T06:22:17.003Z,7.20
2023-03-18T06:23:19.652Z,9.13
2023-03-18T06:24:21.207Z,5.68
2023-03-18T06:25:24.552Z,9.80
2023-03-18T06:26:26.660Z,8.60
2023-03-18T06:27:29.133Z,6.55
2023-03-18T06:28:30.913Z,7.10
2023-03-18T06:29:33.681Z,5.90
2023-03-18T06:30:35.611Z,7.55
2023-03-18T06:31:38.184Z,5.60
2023-03-18T06:32:40.560Z,6.18
2023-03-18T06:33:43.143Z,7.28
2023-03-18T06:34:45.493Z,7.70
2023-03-18T06:35:49.428Z,6.03
2023-03-18T06:36:52.399Z,6.53
2023-03-18T06:37:55.601Z,5.88
2023-03-18T06:38:57.580Z,6.53
2023-03-18T06:40:00.267Z,8.70
2023-03-18T06:41:03.128Z,7.50
2023-03-18T06:42:04.901Z,6.53
2023-03-18T06:43:07.400Z,7.18
2023-03-18T06:44:09.200Z,6.15
2023-03-18T06:45:12.896Z,7.55
2023-03-18T06:46:14.682Z,7.32
2023-03-18T06:47:18.325Z,7.22
2023-03-18T06:48:20.112Z,6.60
2023-03-18T06:49:22.565Z,7.25
2023-03-18T06:50:25.307Z,5.22
2023-03-18T06:51:26.891Z,8.10
2023-03-18T06:52:31.061Z,7.40
2023-03-18T06:53:33.315Z,6.03
2023-03-18T06:54:35.777Z,6.35
2023-03-18T06:55:37.995Z,6.45
2023-03-18T06:56:42.922Z,6.80
2023-03-18T06:57:46.757Z,8.38
2023-03-18T06:58:49.347Z,6.78
2023-03-18T06:59:51.083Z,6.88
2023-03-18T07:00:54.011Z,5.75
2023-03-18T07:01:55.813Z,5.82
2023-03-18T07:02:58.486Z,4.95
2023-03-18T07:04:00.688Z,9.13
2023-03-18T07:05:04.392Z,7.32
2023-03-18T07:06:07.841Z,6.60
2023-03-18T07:07:10.801Z,5.40
2023-03-18T07:08:15.546Z,5.82
2023-03-18T07:09:18.741Z,4.18
2023-03-18T07:10:22.882Z,7.95
2023-03-18T07:11:26.883Z,6.25
2023-03-18T07:12:28.578Z,5.57
2023-03-18T07:13:31.048Z,7.47
2023-03-18T07:14:32.589Z,6.25
2023-03-18T07:15:35.460Z,7.50
2023-03-18T07:16:37.200Z,5.32
2023-03-18T07:17:39.716Z,5.10
2023-03-18T07:18:42.669Z,4.80
2023-03-18T07:19:45.437Z,6.68
2023-03-18T07:20:46.996Z,4.90
2023-03-18T07:21:49.666Z,5.07
2023-03-18T07:22:51.498Z,7.22
2023-03-18T07:23:56.079Z,5.97
2023-03-18T07:24:57.653Z,5.45
2023-03-18T07:26:00.163Z,7.63
2023-03-18T07:27:01.725Z,6.35
2023-03-18T07:28:04.989Z,5.82
2023-03-18T07:29:06.853Z,6.90
2023-03-18T07:30:10.422Z,5.88
2023-03-18T07:31:12.025Z,5.45
2023-03-18T07:32:14.763Z,7.65
2023-03-18T07:33:16.291Z,6.03
2023-03-18T07:34:19.273Z,6.35
2023-03-18T07:35:21.955Z,4.80
2023-03-18T07:36:25.134Z,6.45
2023-03-18T07:37:27.506Z,5.47
2023-03-18T07:38:30.732Z,5.22
2023-03-18T07:39:33.886Z,6.55
2023-03-18T07:40:37.018Z,6.20
2023-03-18T07:41:38.505Z,8.30
2023-03-18T07:42:41.252Z,6.28
2023-03-18T07:43:43.614Z,5.97
2023-03-18T07:44:46.173Z,4.72
2023-03-18T07:45:47.775Z,12.32
2023-03-18T07:46:50.615Z,8.25
2023-03-18T07:47:53.389Z,12.25
2023-03-18T07:48:57.128Z,10.75
2023-03-18T07:49:59.383Z,16.67
2023-03-18T07:51:02.822Z,7.72
2023-03-18T07:52:04.783Z,5.93
2023-03-18T07:53:07.821Z,5.75
2023-03-18T07:54:09.348Z,5.97
2023-03-18T07:55:13.319Z,4.40
2023-03-18T07:56:14.823Z,7.25
2023-03-18T07:57:17.370Z,8.50
2023-03-18T07:58:18.949Z,6.30
2023-03-18T07:59:21.792Z,9.80
2023-03-18T08:00:23.514Z,4.70
2023-03-18T08:01:26.528Z,6.05
2023-03-18T08:02:28.718Z,5.22
2023-03-18T08:03:31.259Z,4.97
2023-03-18T08:04:32.936Z,6.07
2023-03-18T08:05:35.566Z,4.45
2023-03-18T08:06:37.887Z,6.93
2023-03-18T08:07:40.594Z,6.72
2023-03-18T08:08:42.983Z,4.03
2023-03-18T08:09:45.904Z,6.20
2023-03-18T08:10:48.798Z,9.32
2023-03-18T08:11:51.668Z,6.10
2023-03-18T08:12:54.226Z,7.13
2023-03-18T08:13:57.089Z,8.05
2023-03-18T08:14:59.922Z,6.22
2023-03-18T08:16:02.593Z,8.15
2023-03-18T08:17:04.140Z,8.50
2023-03-18T08:18:09.344Z,8.07
2023-03-18T08:19:11.227Z,8.30
2023-03-18T08:20:15.275Z,7.25
2023-03-18T08:21:17.763Z,7.25
2023-03-18T08:22:19.379Z,5.97
2023-03-18T08:23:22.442Z,6.18
2023-03-18T08:24:24.531Z,9.38
2023-03-18T08:25:27.362Z,6.32
2023-03-18T08:26:30.315Z,7.22
2023-03-18T08:27:33.107Z,7.22
2023-03-18T08:28:35.177Z,5.28
2023-03-18T08:29:37.988Z,6.93
2023-03-18T08:30:39.760Z,6.45
2023-03-18T08:31:42.956Z,9.20
2023-03-18T08:32:44.671Z,7.35
2023-03-18T08:33:47.545Z,6.45
2023-03-18T08:34:49.161Z,10.73
2023-03-18T08:35:52.111Z,5.60
2023-03-18T08:36:53.796Z,8.38
2023-03-18T08:37:57.144Z,9.05
2023-03-18T08:38:58.742Z,7.03
2023-03-18T08:40:02.069Z,8.23
2023-03-18T08:41:04.050Z,6.13
2023-03-18T08:42:08.257Z,6.93
2023-03-18T08:43:09.979Z,6.28
2023-03-18T08:44:12.615Z,8.18
2023-03-18T08:45:14.508Z,8.52
2023-03-18T08:46:17.888Z,5.10
2023-03-18T08:47:20.064Z,6.65
2023-03-18T08:48:24.160Z,5.40
2023-03-18T08:49:25.722Z,8.88
2023-03-18T08:50:29.835Z,7.70
2023-03-18T08:51:32.634Z,7.47
2023-03-18T08:52:35.545Z,9.63
2023-03-18T08:53:37.722Z,6.32
2023-03-18T08:54:40.502Z,5.82
2023-03-18T08:55:42.215Z,5.18
2023-03-18T08:56:45.030Z,5.22
2023-03-18T08:57:48.089Z,5.05
2023-03-18T08:58:51.168Z,9.15
2023-03-18T08:59:53.325Z,5.05
2023-03-18T09:00:56.710Z,6.88
2023-03-18T09:01:59.873Z,5.97
2023-03-18T09:03:01.869Z,5.38
2023-03-18T09:04:04.543Z,7.05
2023-03-18T09:05:06.848Z,8.18
2023-03-18T09:06:09.729Z,5.50
2023-03-18T09:07:14.753Z,8.52
2023-03-18T09:08:17.256Z,8.60
2023-03-18T09:09:18.873Z,7.53
2023-03-18T09:10:21.560Z,6.03
2023-03-18T09:11:23.830Z,6.45
2023-03-18T09:12:26.536Z,6.85
2023-03-18T09:13:29.404Z,6.85
2023-03-18T09:14:34.516Z,8.35
2023-03-18T09:15:36.344Z,6.45
2023-03-18T09:16:38.991Z,8.32
2023-03-18T09:17:56.628Z,7.13
2023-03-18T09:19:03.438Z,6.80
2023-03-18T09:20:05.720Z,6.53
2023-03-18T09:21:08.461Z,7.45
2023-03-18T09:22:10.402Z,7.13
2023-03-18T09:23:15.614Z,7.50
2023-03-18T09:24:17.741Z,7.68
2023-03-18T09:25:20.699Z,6.75
2023-03-18T09:26:22.448Z,7.95
2023-03-18T09:27:25.295Z,7.68
2023-03-18T09:28:29.164Z,8.50
2023-03-18T09:29:33.049Z,8.52
2023-03-18T09:30:35.267Z,9.70
2023-03-18T09:31:38.667Z,6.80
2023-03-18T09:32:41.040Z,5.32
2023-03-18T09:33:43.829Z,5.70
2023-03-18T09:34:46.385Z,7.10
2023-03-18T09:35:50.692Z,6.03
2023-03-18T09:36:52.540Z,6.20
2023-03-18T09:37:55.573Z,4.85
2023-03-18T09:38:58.055Z,5.55
2023-03-18T09:40:00.522Z,7.35
2023-03-18T09:41:08.931Z,5.30
2023-03-18T09:42:28.604Z,5.40
2023-03-18T09:43:46.149Z,8.05
2023-03-18T09:44:55.577Z,5.85
2023-03-18T09:46:06.901Z,6.57
2023-03-18T09:47:28.734Z,5.80
2023-03-18T09:48:56.774Z,8.60
2023-03-18T09:50:13.276Z,4.85
2023-03-18T09:51:28.422Z,5.50
2023-03-18T09:52:33.889Z,5.78
2023-03-18T09:53:44.082Z,7.80
2023-03-18T09:54:54.348Z,6.00
2023-03-18T09:56:00.918Z,5.15
2023-03-18T09:57:04.744Z,5.10
2023-03-18T09:58:16.394Z,6.97
2023-03-18T09:59:21.558Z,7.18
2023-03-18T10:00:30.019Z,7.20
2023-03-18T10:01:35.666Z,6.45
2023-03-18T10:02:43.281Z,4.80
2023-03-18T10:03:50.303Z,7.28
2023-03-18T10:04:57.484Z,7.70
2023-03-18T10:06:04.414Z,7.22
2023-03-18T10:07:14.326Z,6.40
2023-03-18T10:08:23.007Z,10.38
2023-03-18T10:09:29.946Z,7.03
2023-03-18T10:10:37.311Z,6.55
2023-03-18T10:11:43.806Z,8.13
2023-03-18T10:12:50.790Z,7.72
2023-03-18T10:14:14.107Z,9.40
2023-03-18T10:15:18.807Z,8.13
2023-03-18T10:16:27.463Z,7.82
2023-03-18T10:17:32.618Z,6.50
2023-03-18T10:18:38.017Z,6.38
2023-03-18T10:19:46.490Z,6.50
2023-03-18T10:21:00.242Z,7.32
2023-03-18T10:22:22.159Z,9.68
2023-03-18T10:23:36.592Z,7.47
2023-03-18T10:24:47.956Z,5.47
2023-03-18T10:25:54.884Z,5.40
2023-03-18T10:27:08.757Z,6.25
2023-03-18T10:28:41.609Z,8.25
2023-03-18T10:29:49.389Z,8.90
2023-03-18T10:31:02.766Z,7.82
2023-03-18T10:32:17.154Z,8.48
2023-03-18T10:33:27.913Z,9.73
2023-03-18T10:35:42.293Z,7.85
2023-03-18T10:36:51.587Z,6.97
2023-03-18T10:37:57.778Z,6.28
2023-03-18T10:39:04.943Z,6.85
2023-03-18T10:40:14.943Z,5.97
2023-03-18T10:41:24.947Z,8.05
2023-03-18T10:42:32.842Z,6.88
2023-03-18T10:43:35.736Z,10.40
2023-03-18T10:44:41.668Z,5.63
2023-03-18T10:45:44.351Z,7.60
2023-03-18T10:46:48.703Z,4.95
2023-03-18T10:48:00.708Z,4.53
2023-03-18T10:49:08.454Z,7.28
2023-03-18T10:50:17.486Z,6.90
2023-03-18T10:51:24.600Z,7.18
2023-03-18T10:52:33.802Z,4.97
2023-03-18T10:53:43.860Z,5.30
2023-03-18T10:54:50.314Z,4.95
2023-03-18T10:56:00.436Z,5.65
2023-03-18T10:57:03.016Z,5.65
2023-03-18T10:58:14.966Z,3.95
2023-03-18T10:59:19.729Z,5.07
2023-03-18T11:00:28.977Z,6.10
2023-03-18T11:01:31.908Z,5.75
2023-03-18T11:02:36.398Z,7.00
2023-03-18T11:03:45.623Z,5.45
2023-03-18T11:04:50.608Z,8.27
2023-03-18T11:05:54.575Z,3.97
2023-03-18T11:06:59.645Z,7.00
2023-03-18T11:08:04.841Z,6.18
2023-03-18T11:09:09.446Z,6.18
2023-03-18T11:10:15.267Z,4.20
2023-03-18T11:11:22.840Z,4.65
2023-03-18T11:12:28.500Z,3.30
2023-03-18T11:13:30.202Z,4.78
2023-03-18T11:14:33.907Z,4.75
2023-03-18T11:15:38.410Z,6.13
2023-03-18T11:16:42.787Z,6.18
2023-03-18T11:17:49.769Z,7.18
2023-03-18T11:18:54.717Z,3.90
2023-03-18T11:20:05.797Z,4.43
2023-03-18T11:21:13.217Z,4.53
2023-03-18T11:22:22.342Z,4.32
2023-03-18T11:23:46.155Z,5.57
2023-03-18T11:25:02.529Z,3.90
2023-03-18T11:26:09.765Z,6.75
2023-03-18T11:27:36.591Z,4.45
2023-03-18T11:28:41.853Z,2.97
2023-03-18T11:29:47.005Z,3.83
2023-03-18T11:30:52.991Z,3.42
2023-03-18T11:31:58.348Z,3.83
2023-03-18T11:33:07.071Z,5.50
2023-03-18T11:34:10.139Z,3.17
2023-03-18T11:35:21.044Z,3.97
2023-03-18T11:36:24.174Z,4.40
2023-03-18T11:37:34.868Z,6.05
2023-03-18T11:38:37.478Z,6.30
2023-03-18T11:39:41.474Z,4.25
2023-03-18T11:40:43.838Z,5.10
2023-03-18T11:41:46.418Z,4.65
2023-03-18T11:42:48.866Z,5.38
2023-03-18T11:44:01.663Z,8.63
2023-03-18T11:45:19.722Z,7.35
2023-03-18T11:46:24.909Z,5.88
2023-03-18T11:47:30.230Z,5.10
2023-03-18T11:48:37.002Z,3.63
2023-03-18T11:49:39.927Z,3.03
2023-03-18T11:50:54.512Z,4.13
2023-03-18T11:52:19.800Z,4.35
2023-03-18T11:53:29.675Z,6.13
2023-03-18T11:54:47.401Z,2.65
2023-03-18T11:55:53.572Z,3.90
2023-03-18T11:56:57.430Z,4.50
2023-03-18T11:58:31.368Z,2.80
2023-03-18T11:59:52.461Z,2.30
2023-03-18T12:01:00.503Z,3.83
2023-03-18T12:02:25.091Z,2.72
2023-03-18T12:03:53.601Z,2.40
2023-03-18T12:05:21.232Z,3.75
2023-03-18T12:06:24.939Z,3.03
2023-03-18T12:07:43.421Z,3.25
2023-03-18T12:09:03.273Z,4.60
2023-03-18T12:10:19.735Z,2.03
2023-03-18T12:11:34.911Z,3.63
2023-03-18T12:12:53.522Z,4.75
2023-03-18T12:14:03.976Z,3.90
2023-03-18T12:15:16.637Z,3.22
2023-03-18T12:16:36.403Z,6.50
2023-03-18T12:17:50.224Z,2.70
2023-03-18T12:19:17.569Z,3.60
2023-03-18T12:20:40.382Z,2.85
2023-03-18T12:21:56.374Z,3.08
2023-03-18T12:23:10.679Z,3.92
2023-03-18T12:24:38.222Z,2.70
2023-03-18T12:25:52.197Z,3.58
2023-03-18T12:27:04.719Z,2.78
2023-03-18T12:28:13.801Z,2.70
2023-03-18T12:29:37.441Z,4.43
2023-03-18T12:30:56.171Z,3.28
2023-03-18T12:32:08.018Z,5.13
2023-03-18T12:33:22.798Z,4.93
2023-03-18T12:34:43.481Z,5.68
2023-03-18T12:37:05.086Z,2.65
2023-03-18T12:38:38.380Z,2.95
2023-03-18T12:40:16.686Z,3.70
2023-03-18T12:41:25.148Z,3.63
2023-03-18T12:42:39.556Z,4.90
2023-03-18T12:43:51.635Z,2.85
2023-03-18T12:45:00.906Z,5.93
2023-03-18T12:46:09.358Z,2.75
2023-03-18T12:47:18.056Z,4.47
2023-03-18T12:48:42.663Z,3.38
2023-03-18T12:49:50.314Z,5.50
2023-03-18T12:50:58.428Z,2.42
2023-03-18T12:52:06.344Z,2.40
2023-03-18T12:53:16.478Z,3.47
2023-03-18T12:54:25.676Z,3.42
2023-03-18T12:55:29.333Z,2.95
2023-03-18T12:56:33.265Z,2.50
2023-03-18T12:57:44.359Z,4.70
2023-03-18T12:58:51.345Z,2.50
2023-03-18T12:59:59.093Z,2.90
2023-03-18T13:01:07.261Z,3.13
2023-03-18T13:02:27.022Z,3.08
2023-03-18T13:03:33.927Z,3.63
2023-03-18T13:04:38.611Z,3.20
2023-03-18T13:05:49.929Z,4.25
2023-03-18T13:07:02.099Z,2.85
2023-03-18T13:08:46.987Z,2.95
2023-03-18T13:09:54.099Z,2.92
2023-03-18T13:11:06.278Z,3.83
2023-03-18T13:12:13.459Z,3.47
2023-03-18T13:13:16.293Z,5.72
2023-03-18T13:14:27.268Z,2.20
2023-03-18T13:15:35.257Z,3.05
2023-03-18T13:16:38.491Z,3.55
2023-03-18T13:17:44.585Z,5.10
2023-03-18T13:18:50.424Z,4.38
2023-03-18T13:19:53.289Z,3.72
2023-03-18T13:20:59.026Z,4.78
2023-03-18T13:22:17.657Z,3.00
2023-03-18T13:23:41.372Z,4.53
2023-03-18T13:25:00.272Z,3.80
2023-03-18T13:26:15.640Z,3.30
2023-03-18T13:27:41.764Z,2.28
2023-03-18T13:28:56.794Z,3.72
2023-03-18T13:30:08.224Z,2.67
2023-03-18T13:31:21.277Z,2.63
2023-03-18T13:32:40.455Z,2.80
2023-03-18T13:33:55.864Z,3.88
2023-03-18T13:35:15.857Z,2.80
2023-03-18T13:36:50.819Z,2.83
2023-03-18T13:38:25.887Z,4.45
2023-03-18T13:39:43.657Z,2.92
2023-03-18T13:41:06.281Z,3.88
2023-03-18T13:42:26.224Z,2.70
2023-03-18T13:43:29.857Z,2.83
2023-03-18T13:44:40.952Z,3.45
2023-03-18T13:45:49.077Z,1.77
2023-03-18T13:46:57.566Z,4.43
2023-03-18T13:48:02.778Z,6.05
2023-03-18T13:49:04.540Z,3.05
2023-03-18T13:50:27.207Z,2.65
2023-03-18T13:51:53.126Z,3.65
2023-03-18T13:52:57.875Z,2.28
2023-03-18T13:54:06.702Z,3.83
2023-03-18T13:55:25.515Z,4.25
2023-03-18T13:56:33.128Z,3.45
2023-03-18T13:57:47.669Z,3.95
2023-03-18T13:58:52.541Z,4.40
2023-03-18T14:00:28.401Z,3.72
2023-03-18T14:01:35.733Z,2.38
2023-03-18T14:02:45.685Z,4.50
2023-03-18T14:03:57.155Z,4.97
2023-03-18T14:04:59.858Z,6.70
2023-03-18T14:06:24.124Z,4.47
2023-03-18T14:07:27.685Z,6.90
2023-03-18T14:08:48.314Z,2.67
2023-03-18T14:09:54.913Z,3.85
2023-03-18T14:11:50.276Z,2.47
2023-03-18T14:12:52.994Z,3.88
2023-03-18T14:13:57.096Z,2.70
2023-03-18T14:15:05.796Z,3.05
2023-03-18T14:16:10.678Z,3.13
2023-03-18T14:17:18.318Z,2.30
2023-03-18T14:18:27.677Z,3.10
2023-03-18T14:19:32.583Z,3.05
2023-03-18T14:20:40.872Z,4.00
2023-03-18T14:21:48.440Z,3.13
2023-03-18T14:22:52.899Z,3.70
2023-03-18T14:24:06.996Z,1.88
2023-03-18T14:25:41.008Z,3.63
2023-03-18T14:26:47.787Z,2.75
2023-03-18T14:27:52.603Z,3.47
2023-03-18T14:28:57.639Z,7.53
2023-03-18T14:30:42.965Z,2.30
2023-03-18T14:31:57.687Z,2.30
2023-03-18T14:33:01.163Z,1.98
2023-03-18T14:34:26.573Z,4.47
2023-03-18T14:35:33.055Z,2.40
2023-03-18T14:37:02.386Z,8.35